Terminal Aerodrome Forecast
Issued by NWS

Home | Current Version | Previous Version | Text Only | Print | Product List | Glossary On
Versions: 1 2 3 4 5 6 7 8 9 10 11 12 13 14 15 16 17 18 19
742
FTUS43 KIND 172320
TAFBMG
TAF
KBMG 172320Z 1800/1824 15011G20KT P6SM VCSH OVC060
     FM180300 19014G24KT P6SM -SHRA OVC035 WS020/21045KT
     FM180500 19015G25KT P6SM -SHRA VCTS OVC025CB WS020/21045KT
     FM181300 20015G25KT 5SM SHRA BR VCTS OVC010CB
     FM181900 28017G31KT 3SM SHRA BR OVC010
     FM182100 30017G34KT 6SM -SHRA OVC010
      AMD LTD TO CLD VIS AND WIND 1802/1814=

USA.gov is the U.S. government's official web portal to all federal, state and local government web resources and services.